Latest Weather Observations for Lajamanu

IDD60801

Issued at 11:01 am CST Thursday 21 November 2019 (issued every 10 minutes, with the page automatically refreshed every 10 minutes)

About weather observations | Map of weather stations | Latest weather observations for NT | Other Formats
Station Details ID: 014829 Name: LAJAMANU AIRPORT Lat: -18.33 Lon: 130.64 Height: 315.6 m
Data from the previous 72 hours. | See also: Recent months at Lajamanu
Date/Time
CST
Temp
°C
App
Temp
°C
Dew
Point
°C
Rel
Hum
%
Delta-T
°C
Wind Press
QNH
hPa
Press
MSL
hPa
Rain since
9am
mm
Dir  Spd
km/h
Gust
km/h
Spd
kts
Gust
kts
21/11:00am 37.2 34.7 8.1 17 16.7 NNW 11 17 6 9 1010.2 1007.7 0.0
21/10:30am 37.2 34.5 8.9 18 16.5 NW 13 20 7 11 1010.3 1007.8 0.0
21/10:00am 36.0 32.7 9.5 20 15.5 NW 17 26 9 14 1010.8 1008.3 0.0
21/09:30am 35.1 31.6 10.2 22 14.7 WNW 19 35 10 19 1010.3 1007.8 0.0
21/09:00am 33.5 30.1 11.4 26 13.2 NW 20 28 11 15 1010.1 1007.6 0.0
21/08:30am 32.7 28.6 11.3 27 12.7 NW 24 32 13 17 1010.0 1007.5 0.0
21/08:00am 31.8 28.4 10.5 27 12.4 NW 19 28 10 15 1009.6 1007.1 0.0
21/07:30am 31.4 28.4 10.7 28 12.1 NW 17 24 9 13 1009.5 1007.0 0.0
21/07:00am 31.0 27.9 10.4 28 11.9 NNW 17 24 9 13 1008.9 1006.5 0.0
21/06:30am 30.2 27.3 9.7 28 11.7 NNW 15 20 8 11 1008.7 1006.3 0.0
21/06:00am 30.5 27.9 9.4 27 12.0 NNW 13 17 7 9 1008.4 1005.9 0.0
21/05:30am 31.1 27.7 9.3 26 12.4 NNW 17 22 9 12 1008.1 1005.6 0.0
21/05:00am 31.9 28.0 8.8 24 13.1 NNW 19 30 10 16 1008.0 1005.5 0.0
21/04:30am 32.0 28.8 7.0 21 13.8 NNW 13 17 7 9 1008.0 1005.5 0.0
21/04:00am 32.4 29.5 6.6 20 14.2 N 11 15 6 8 1007.7 1005.2 0.0
21/03:30am 32.8 29.6 6.9 20 14.3 N 13 15 7 8 1007.4 1004.9 0.0
21/03:00am 32.7 29.9 6.8 20 14.3 NNE 11 17 6 9 1007.0 1004.5 0.0
21/02:30am 32.8 30.2 7.6 21 14.1 NNW 11 15 6 8 1007.2 1004.7 0.0
21/02:00am 32.5 30.3 8.0 22 13.8 NNE 9 11 5 6 1007.4 1004.9 0.0
21/01:30am 31.9 29.9 8.8 24 13.1 SE 9 13 5 7 1007.9 1005.4 0.0
21/01:00am 34.3 29.1 7.4 19 15.1 SSW 24 39 13 21 1008.6 1006.2 0.0
21/12:30am 34.0 29.5 7.1 19 15.0 NNW 20 28 11 15 1007.7 1005.2 0.0
21/12:00am 34.1 29.7 6.4 18 15.3 NNW 19 28 10 15 1008.1 1005.6 0.0
 
Date/Time
CST
Temp
°C
App
Temp
°C
Dew
Point
°C
Rel
Hum
%
Delta-T
°C
Wind Press
QNH
hPa
Press
MSL
hPa
Rain since
9am
mm
Dir  Spd
km/h
Gust
km/h
Spd
kts
Gust
kts
20/11:30pm 35.0 29.6 4.5 15 16.4 NNW 22 30 12 16 1008.2 1005.7 0.0
20/11:00pm 35.3 31.3 4.8 15 16.5 NNW 15 20 8 11 1008.2 1005.7 0.0
20/10:30pm 35.5 31.9 4.9 15 16.6 N 13 17 7 9 1008.2 1005.7 0.0
20/10:00pm 36.3 33.0 4.6 14 17.2 N 11 15 6 8 1007.9 1005.4 0.0
20/09:30pm 36.7 33.1 4.9 14 17.4 N 13 17 7 9 1007.7 1005.2 0.0
20/09:00pm 37.0 33.2 4.0 13 17.8 N 13 15 7 8 1007.4 1004.9 0.0
20/08:30pm 37.7 33.8 3.4 12 18.4 N 13 17 7 9 1007.0 1004.5 0.0
20/08:00pm 38.1 34.7 3.8 12 18.6 N 11 13 6 7 1006.8 1004.3 0.0
20/07:30pm 38.8 34.8 3.1 11 19.2 N 13 20 7 11 1006.4 1003.9 0.0
20/07:00pm 39.4 35.1 0.7 9 20.1 NNE 13 17 7 9 1005.9 1003.5 0.0
20/06:30pm 39.8 35.5 1.0 9 20.4 N 13 19 7 10 1005.6 1003.1 0.0
20/06:00pm 40.2 35.9 1.3 9 20.6 NE 13 20 7 11 1005.4 1002.9 0.0
20/05:30pm 41.6 38.1 -1.1 7 21.9 NNW 7 11 4 6 1005.2 1002.7 0.0
20/05:00pm 40.8 36.7 0.1 8 21.1 WNW 11 19 6 10 1005.1 1002.6 0.0
20/04:30pm 41.1 36.8 -1.5 7 21.7 N 11 19 6 10 1005.2 1002.7 0.0
20/04:00pm 41.6 37.8 -1.1 7 21.9 NNW 9 15 5 8 1005.2 1002.7 0.0
20/03:30pm 41.4 37.5 -1.3 7 21.8 SE 9 17 5 9 1005.5 1003.0 0.0
20/03:00pm 41.8 37.6 -1.0 7 22.0 SSW 11 20 6 11 1005.7 1003.3 0.0
20/02:30pm 40.6 37.0 -1.9 7 21.4 NNE 7 15 4 8 1006.3 1003.8 0.0
20/02:00pm 41.1 36.8 -1.5 7 21.6 ENE 11 17 6 9 1006.6 1004.1 0.0
20/01:30pm 41.0 37.9 0.3 8 21.3 E 6 13 3 7 1007.0 1004.5 0.0
20/01:00pm 40.3 34.3 -6.5 5 21.9 N 17 26 9 14 1007.7 1005.2 0.0
20/12:40pm 42.2 37.4 2.8 9 21.4 ESE 17 48 9 26 1007.7 1005.2 0.0
20/12:30pm 41.2 36.3 2.0 9 21.0 ENE 17 26 9 14 1008.2 1005.7 0.0
20/12:00pm 40.0 36.1 5.2 12 19.4 NW 15 26 8 14 1008.9 1006.5 0.0
20/11:30am 39.0 35.1 3.2 11 19.3 WSW 13 24 7 13 1009.5 1007.0 0.0
20/11:00am 38.4 35.9 8.1 16 17.5 WNW 11 22 6 12 1009.8 1007.3 0.0
20/10:30am 37.4 35.0 9.9 19 16.3 W 13 20 7 11 1010.2 1007.7 0.0
20/10:00am 36.3 33.8 9.8 20 15.6 WNW 13 22 7 12 1010.5 1008.0 0.0
20/09:30am 35.4 32.5 9.7 21 15.0 WNW 15 26 8 14 1010.6 1008.1 0.0
20/09:00am 35.0 32.8 9.4 21 14.9 NW 11 20 6 11 1010.6 1008.1 0.0
20/08:30am 33.6 30.9 9.0 22 14.1 NNW 13 22 7 12 1010.6 1008.1 0.0
20/08:00am 32.4 30.1 5.8 19 14.4 WNW 7 9 4 5 1010.1 1007.6 0.0
20/07:30am 30.2 27.4 -0.2 14 14.7 SW 4 7 2 4 1009.7 1007.2 0.0
20/07:00am 27.2 25.0 -1.7 15 13.3 CALM 0 0 0 0 1009.3 1006.9 0.0
20/06:30am 25.6 21.6 -2.1 16 12.5 NNW 9 11 5 6 1009.0 1006.6 0.0
20/06:00am 25.1 21.4 -2.5 16 12.4 NNW 7 9 4 5 1008.8 1006.4 0.0
20/05:30am 24.7 21.1 -3.6 15 12.4 WNW 6 7 3 4 1008.5 1006.0 0.0
20/05:00am 26.5 23.7 -3.1 14 13.2 NE 2 7 1 4 1008.3 1005.8 0.0
20/04:30am 28.9 25.0 -1.2 14 14.2 NE 9 13 5 7 1008.0 1005.5 0.0
20/04:00am 26.5 22.4 -3.1 14 13.2 ENE 9 11 5 6 1008.0 1005.5 0.0
20/03:30am 26.6 22.5 -3.1 14 13.3 E 9 11 5 6 1007.9 1005.4 0.0
20/03:00am 25.8 22.1 -2.8 15 12.8 SE 7 13 4 7 1008.0 1005.5 0.0
20/02:30am 26.7 24.3 -3.0 14 13.4 CALM 0 6 0 3 1007.7 1005.2 0.0
20/02:00am 29.2 24.9 -2.0 13 14.5 NW 11 13 6 7 1007.6 1005.1 0.0
20/01:30am 28.5 24.3 -3.6 12 14.5 NW 9 15 5 8 1007.9 1005.4 0.0
20/01:00am 31.9 27.3 -1.0 12 15.9 NNE 13 15 7 8 1008.1 1005.6 0.0
20/12:30am 32.4 27.7 -1.8 11 16.4 NNE 13 15 7 8 1008.4 1005.9 0.0
20/12:00am 31.8 27.6 -3.5 10 16.4 NNW 9 11 5 6 1008.7 1006.3 0.0
 
Date/Time
CST
Temp
°C
App
Temp
°C
Dew
Point
°C
Rel
Hum
%
Delta-T
°C
Wind Press
QNH
hPa
Press
MSL
hPa
Rain since
9am
mm
Dir  Spd
km/h
Gust
km/h
Spd
kts
Gust
kts
19/11:30pm 30.7 26.7 -5.8 9 16.1 NNE 7 13 4 7 1009.0 1006.6 0.0
19/11:00pm 34.5 29.1 -4.5 8 18.1 NNE 15 20 8 11 1009.2 1006.8 0.0
19/10:30pm 31.7 26.8 -6.6 8 16.8 ENE 11 15 6 8 1009.1 1006.7 0.0
19/10:00pm 33.6 28.9 -5.2 8 17.7 NNE 11 13 6 7 1008.9 1006.5 0.0
19/09:30pm 33.9 29.0 -6.7 7 18.1 NE 11 13 6 7 1008.8 1006.4 0.0
19/09:00pm 34.6 30.2 -6.2 7 18.5 ENE 9 11 5 6 1008.7 1006.3 0.0
19/08:30pm 33.6 29.5 -6.9 7 18.0 E 7 7 4 4 1008.5 1006.0 0.0
19/08:00pm 34.2 29.7 -6.5 7 18.2 ENE 9 11 5 6 1008.3 1005.8 0.0
19/07:30pm 35.8 31.6 -7.3 6 19.3 E 7 11 4 6 1007.9 1005.4 0.0
19/07:00pm 38.3 34.3 -7.9 5 20.9 ENE 6 9 3 5 1007.6 1005.1 0.0
19/06:30pm 39.8 35.7 -6.9 5 21.7 NE 7 9 4 5 1007.3 1004.8 0.0
19/06:00pm 40.5 36.6 -6.4 5 22.1 NE 6 7 3 4 1007.0 1004.5 0.0
19/05:30pm 40.8 36.4 -6.2 5 22.3 N 9 13 5 7 1006.9 1004.4 0.0
19/05:00pm 41.4 36.0 -8.7 4 22.9 NE 13 22 7 12 1006.7 1004.2 0.0
19/04:30pm 41.6 36.2 -8.5 4 23.1 S 13 19 7 10 1006.8 1004.3 0.0
19/04:00pm 41.2 35.3 -5.9 5 22.4 E 17 24 9 13 1007.0 1004.5 0.0
19/03:30pm 41.7 36.6 -5.6 5 22.7 N 13 20 7 11 1007.1 1004.6 0.0
19/03:00pm 40.4 35.9 -6.5 5 22.0 E 9 13 5 7 1007.5 1005.0 0.0
19/02:30pm 41.5 37.1 -5.7 5 22.6 SSW 9 15 5 8 1007.9 1005.4 0.0
19/02:00pm 41.9 35.6 -5.4 5 22.8 E 19 30 10 16 1008.3 1005.8 0.0
19/01:30pm 41.2 36.4 -5.9 5 22.5 ESE 11 15 6 8 1008.7 1006.3 0.0
19/01:00pm 40.8 34.8 -6.2 5 22.2 ESE 17 26 9 14 1009.5 1007.0 0.0
19/12:30pm 39.7 34.8 -6.9 5 21.6 NNE 11 26 6 14 1009.9 1007.4 0.0
19/12:00pm 40.0 33.4 -6.7 5 21.8 ENE 20 33 11 18 1010.3 1007.8 0.0
19/11:30am 39.3 32.3 -7.2 5 21.4 NE 22 32 12 17 1010.7 1008.2 0.0
19/11:00am 40.1 33.1 -6.7 5 21.8 NE 22 32 12 17 1011.2 1008.7 0.0
19/10:30am 39.1 31.9 -5.0 6 21.0 NE 24 39 13 21 1011.6 1009.2 0.0
19/10:00am 37.6 30.3 -6.0 6 20.2 NNE 24 37 13 20 1012.0 1009.6 0.0
19/09:30am 37.1 29.4 -6.4 6 20.0 NE 26 35 14 19 1012.2 1009.8 0.0
19/09:00am 36.2 29.4 -9.4 5 19.8 ENE 20 33 11 18 1012.2 1009.8 0.0
19/08:30am 34.1 27.2 -10.8 5 18.8 NE 20 30 11 16 1012.1 1009.7 0.0
19/08:00am 31.5 24.6 -10.4 6 17.2 NE 20 30 11 16 1012.2 1009.8 0.0
19/07:30am 29.9 23.6 -9.6 7 16.2 ESE 17 20 9 11 1011.4 1008.9 0.0
19/07:00am 27.7 23.0 -9.5 8 15.0 E 9 13 5 7 1011.1 1008.6 0.0
19/06:30am 24.4 19.3 -9.1 10 13.2 SE 11 11 6 6 1010.8 1008.3 0.0
19/06:00am 22.9 17.6 -11.6 9 12.7 ESE 11 13 6 7 1010.5 1008.0 0.0
19/05:30am 23.6 17.7 -9.8 10 12.8 E 15 17 8 9 1010.2 1007.7 0.0
19/05:00am 23.2 18.4 -10.1 10 12.7 ESE 9 11 5 6 1009.9 1007.4 0.0
19/04:30am 22.6 17.9 -9.3 11 12.3 SE 9 11 5 6 1009.7 1007.2 0.0
19/04:00am 21.9 17.1 -9.9 11 12.0 SE 9 9 5 5 1009.7 1007.2 0.0
19/03:30am 20.9 17.1 -9.5 12 11.4 SSE 4 7 2 4 1009.8 1007.3 0.0
19/03:00am 22.2 17.8 -9.6 11 12.1 SE 7 9 4 5 1009.9 1007.4 0.0
19/02:30am 22.3 19.2 -10.7 10 12.3 CALM 0 0 0 0 1010.0 1007.5 0.0
19/02:00am 22.8 19.7 -10.4 10 12.5 CALM 0 0 0 0 1010.2 1007.7 0.0
19/01:30am 23.9 20.0 -10.9 9 13.1 SSE 4 9 2 5 1010.4 1007.9 0.0
19/01:00am 23.9 19.6 -10.9 9 13.1 SSE 6 7 3 4 1010.7 1008.2 0.0
19/12:30am 25.7 20.9 -11.0 8 14.1 E 9 11 5 6 1011.0 1008.5 0.0
19/12:00am 26.9 22.0 -11.8 7 14.8 ENE 9 11 5 6 1011.1 1008.6 0.0
 
Date/Time
CST
Temp
°C
App
Temp
°C
Dew
Point
°C
Rel
Hum
%
Delta-T
°C
Wind Press
QNH
hPa
Press
MSL
hPa
Rain since
9am
mm
Dir  Spd
km/h
Gust
km/h
Spd
kts
Gust
kts
18/11:30pm 29.6 24.0 -11.7 6 16.3 ENE 13 17 7 9 1011.5 1009.1 0.0
18/11:00pm 28.7 23.5 -10.5 7 15.6 ENE 11 13 6 7 1011.7 1009.3 0.0
18/10:30pm 29.6 24.3 -11.7 6 16.3 ENE 11 13 6 7 1011.6 1009.2 0.0
18/10:00pm 29.6 24.3 -11.7 6 16.3 E 11 11 6 6 1011.6 1009.2 0.0
18/09:30pm 29.7 24.4 -11.7 6 16.4 E 11 13 6 7 1011.5 1009.1 0.0
18/09:00pm 31.7 26.0 -12.5 5 17.6 ENE 13 15 7 8 1011.5 1009.1 0.0
18/08:30pm 31.6 26.4 -10.3 6 17.3 E 11 11 6 6 1011.3 1008.8 0.0
18/08:00pm 32.3 27.0 -12.1 5 17.8 E 11 13 6 7 1011.0 1008.5 0.0
18/07:30pm 34.2 29.4 -10.8 5 18.8 E 9 11 5 6 1010.8 1008.3 0.0
18/07:00pm 36.9 31.3 -11.7 4 20.5 E 13 19 7 10 1010.4 1007.9 0.0
18/06:30pm 38.3 32.3 -10.7 4 21.3 E 15 22 8 12 1010.1 1007.6 0.0
18/06:00pm 38.9 33.6 -7.5 5 21.2 ENE 13 20 7 11 1009.8 1007.3 0.0
18/05:30pm 39.6 33.6 -7.0 5 21.6 SE 17 24 9 13 1009.3 1006.9 0.0
18/05:00pm 39.4 34.1 -7.2 5 21.5 NE 13 20 7 11 1009.3 1006.9 0.0
18/04:30pm 39.4 33.7 -7.2 5 21.5 NE 15 24 8 13 1009.5 1007.0 0.0
18/04:00pm 40.5 35.3 -6.4 5 22.0 ENE 13 26 7 14 1009.6 1007.1 0.0
18/03:30pm 40.6 34.3 -6.3 5 22.1 NE 19 32 10 17 1009.9 1007.4 0.0
18/03:00pm 40.2 35.0 -6.6 5 21.9 E 13 26 7 14 1010.3 1007.8 0.0
18/02:30pm 41.0 35.4 -6.0 5 22.3 ESE 15 26 8 14 1010.6 1008.1 0.0
18/02:00pm 39.6 33.0 -7.0 5 21.6 ENE 20 30 11 16 1011.1 1008.6 0.0
18/01:30pm 40.8 34.3 -6.2 5 22.2 E 20 32 11 17 1011.7 1009.3 0.0
18/01:00pm 39.2 33.4 -4.9 6 21.0 NE 17 35 9 19 1012.2 1009.8 0.0
18/12:30pm 39.4 33.0 -4.8 6 21.1 ENE 20 32 11 17 1012.8 1010.3 0.0
18/12:00pm 39.4 33.3 -2.7 7 20.8 ENE 20 39 11 21 1013.3 1010.8 0.0
18/11:30am 38.6 31.6 -3.3 7 20.4 ENE 24 35 13 19 1013.8 1011.3 0.0

Other formats

Comma delimited format used in spreadsheet applications
http://www.bom.gov.au/fwo/IDD60801/IDD60801.94231.axf

JavaScript Object Notation format (JSON) in row-major order
http://www.bom.gov.au/fwo/IDD60801/IDD60801.94231.json

Data quality

Most of these data are generated automatically and are frequently updated. Quality checks on data are not normally performed. It is possible for incorrect values to appear. Refer to information at About Latest Weather Observations and please check the disclaimer before using these data.